Time;durP1;ratioP1;P1;durP2;ratioP2;P2;SDS_P1;SDS_P2;PMS_P1;PMS_P2;Temp;Humidity;BMP_temperature;BMP_pressure;BME280_temperature;BME280_humidity;BME280_pressure;Samples;Min_cycle;Max_cycle;Signal;HPM_P1;HPM_P2
2023/07/24 00:03:09;;;;;;;0.57;0.57;;;;;;;;;;10273122;28;20057;-89
2023/07/24 00:08:13;;;;;;;2.13;0.70;;;;;;;;;;10295368;28;20585;-88
2023/07/24 00:13:17;;;;;;;1.60;0.73;;;;;;;;;;10285617;28;20720;-89
2023/07/24 00:18:22;;;;;;;1.05;0.65;;;;;;;;;;10288561;28;20070;-89
2023/07/24 00:23:26;;;;;;;0.70;0.57;;;;;;;;;;10268173;28;20069;-89
2023/07/24 00:28:29;;;;;;;0.82;0.80;;;;;;;;;;10286216;28;20109;-89
2023/07/24 00:33:34;;;;;;;0.95;0.63;;;;;;;;;;10307218;28;20039;-89
2023/07/24 00:38:38;;;;;;;1.50;1.00;;;;;;;;;;10296256;28;20109;-89
2023/07/24 00:43:42;;;;;;;0.80;0.77;;;;;;;;;;10299054;28;20043;-90
2023/07/24 00:48:47;;;;;;;1.08;0.73;;;;;;;;;;10227717;28;20044;-89
2023/07/24 00:53:51;;;;;;;0.80;0.70;;;;;;;;;;10267363;28;20047;-90
2023/07/24 00:58:56;;;;;;;0.85;0.68;;;;;;;;;;10267233;28;20049;-93
2023/07/24 01:04:03;;;;;;;0.70;0.63;;;;;;;;;;10267168;28;20042;-90
2023/07/24 01:09:08;;;;;;;0.55;0.55;;;;;;;;;;10266854;28;20101;-89
2023/07/24 01:14:18;;;;;;;0.88;0.70;;;;;;;;;;10283428;28;20090;-90
2023/07/24 01:19:36;;;;;;;1.25;0.80;;;;;;;;;;10266033;28;20066;-92
2023/07/24 01:24:56;;;;;;;1.52;0.90;;;;;;;;;;10264962;28;20130;-88
2023/07/24 01:30:01;;;;;;;0.57;0.57;;;;;;;;;;10264077;28;20057;-88
2023/07/24 01:35:07;;;;;;;0.90;0.80;;;;;;;;;;10272677;28;20051;-90
2023/07/24 01:40:16;;;;;;;1.98;0.95;;;;;;;;;;10267955;28;20053;-87
2023/07/24 01:45:21;;;;;;;1.80;1.10;;;;;;;;;;10261238;28;20049;-87
2023/07/24 01:50:24;;;;;;;0.93;0.67;;;;;;;;;;10283626;28;20057;-87
2023/07/24 01:55:28;;;;;;;0.98;0.80;;;;;;;;;;10273223;28;20129;-88
2023/07/24 02:00:33;;;;;;;1.98;0.93;;;;;;;;;;10266954;28;20053;-89
2023/07/24 02:05:37;;;;;;;1.45;1.02;;;;;;;;;;10288664;28;20070;-92
2023/07/24 02:10:40;;;;;;;1.50;1.10;;;;;;;;;;10270837;28;20656;-89
2023/07/24 02:15:45;;;;;;;1.65;0.98;;;;;;;;;;10293034;28;20047;-90
2023/07/24 02:20:52;;;;;;;1.87;1.20;;;;;;;;;;10279268;28;20506;-89
2023/07/24 02:25:56;;;;;;;2.30;1.35;;;;;;;;;;10279899;28;20046;-90
2023/07/24 02:31:01;;;;;;;2.30;1.42;;;;;;;;;;10251912;28;20101;-89
2023/07/24 02:36:05;;;;;;;2.45;1.73;;;;;;;;;;10280133;28;20043;-92
2023/07/24 02:41:10;;;;;;;2.10;1.40;;;;;;;;;;10276774;28;20117;-91
2023/07/24 02:46:15;;;;;;;3.25;2.25;;;;;;;;;;10264789;28;20058;-89
2023/07/24 02:51:19;;;;;;;3.37;2.30;;;;;;;;;;10265307;28;20043;-89
2023/07/24 02:56:23;;;;;;;4.25;2.55;;;;;;;;;;10283245;28;20045;-88
2023/07/24 03:01:28;;;;;;;2.78;1.77;;;;;;;;;;10264077;28;20134;-89
2023/07/24 03:06:32;;;;;;;2.17;1.50;;;;;;;;;;10249532;28;20312;-88
2023/07/24 03:11:36;;;;;;;2.22;1.35;;;;;;;;;;10311041;28;20517;-90
2023/07/24 03:16:41;;;;;;;1.20;1.00;;;;;;;;;;10311339;28;19921;-92
2023/07/24 03:21:44;;;;;;;1.50;0.88;;;;;;;;;;10279717;28;20054;-88
2023/07/24 03:26:48;;;;;;;1.38;1.20;;;;;;;;;;10288082;28;20049;-92
2023/07/24 03:31:53;;;;;;;2.47;1.30;;;;;;;;;;10287447;28;20058;-88
2023/07/24 03:36:57;;;;;;;1.67;1.33;;;;;;;;;;10303454;28;20077;-92
2023/07/24 03:42:00;;;;;;;1.92;1.48;;;;;;;;;;10290054;28;20051;-86
2023/07/24 03:47:05;;;;;;;1.70;1.25;;;;;;;;;;10293112;28;20050;-87
2023/07/24 03:52:09;;;;;;;2.07;1.13;;;;;;;;;;10278663;28;20117;-86
2023/07/24 03:57:13;;;;;;;3.33;1.42;;;;;;;;;;10310526;28;20054;-86
2023/07/24 04:02:18;;;;;;;2.00;1.38;;;;;;;;;;10277311;28;20062;-86
2023/07/24 04:07:21;;;;;;;3.13;1.60;;;;;;;;;;10310153;28;20472;-86
2023/07/24 04:12:25;;;;;;;1.73;1.23;;;;;;;;;;10317841;23;20046;-83
2023/07/24 04:17:29;;;;;;;2.05;1.30;;;;;;;;;;10277567;28;20070;-84
2023/07/24 04:22:33;;;;;;;2.10;1.35;;;;;;;;;;10284603;28;20401;-84
2023/07/24 04:27:36;;;;;;;1.55;1.00;;;;;;;;;;10292970;28;20473;-83
2023/07/24 04:32:41;;;;;;;1.98;1.20;;;;;;;;;;10294148;28;20062;-84
2023/07/24 04:37:44;;;;;;;2.03;1.13;;;;;;;;;;10300309;28;20046;-84
2023/07/24 04:42:47;;;;;;;3.60;1.67;;;;;;;;;;10273594;28;20059;-84
2023/07/24 04:47:52;;;;;;;1.70;1.20;;;;;;;;;;10293167;28;20051;-84
2023/07/24 04:52:55;;;;;;;2.38;1.40;;;;;;;;;;10288366;28;20034;-84
2023/07/24 04:57:59;;;;;;;3.03;1.80;;;;;;;;;;10274750;28;20070;-82
2023/07/24 05:03:05;;;;;;;3.08;2.25;;;;;;;;;;10281167;28;20129;-83
2023/07/24 05:08:08;;;;;;;4.68;2.00;;;;;;;;;;10308145;28;20460;-82
2023/07/24 05:13:11;;;;;;;2.47;2.00;;;;;;;;;;10315583;28;20457;-82
2023/07/24 05:18:17;;;;;;;2.58;1.95;;;;;;;;;;10288781;28;20043;-82
2023/07/24 05:23:20;;;;;;;2.15;1.58;;;;;;;;;;10290803;28;20038;-83
2023/07/24 05:28:25;;;;;;;4.40;1.80;;;;;;;;;;10300922;28;20050;-82
2023/07/24 05:33:30;;;;;;;3.08;1.95;;;;;;;;;;10257984;28;20114;-83
2023/07/24 05:38:33;;;;;;;3.13;2.28;;;;;;;;;;10294132;28;20070;-82
2023/07/24 05:43:37;;;;;;;2.53;1.90;;;;;;;;;;10298644;28;20565;-82
2023/07/24 05:48:42;;;;;;;3.47;2.53;;;;;;;;;;10314786;28;20070;-82
2023/07/24 05:53:45;;;;;;;2.28;1.65;;;;;;;;;;10294987;28;20069;-82
2023/07/24 05:58:48;;;;;;;2.75;1.80;;;;;;;;;;10304349;28;20509;-84
2023/07/24 06:03:53;;;;;;;3.67;2.30;;;;;;;;;;10287574;28;20082;-83
2023/07/24 06:08:56;;;;;;;3.70;2.60;;;;;;;;;;10304315;28;20043;-83
2023/07/24 06:13:59;;;;;;;3.00;2.22;;;;;;;;;;10324687;28;20085;-82
2023/07/24 06:19:04;;;;;;;2.90;2.10;;;;;;;;;;10299180;28;20073;-83
2023/07/24 06:24:11;;;;;;;3.00;2.20;;;;;;;;;;10286460;28;20038;-83
2023/07/24 06:29:16;;;;;;;2.47;1.90;;;;;;;;;;10272305;28;20461;-83
2023/07/24 06:34:21;;;;;;;2.80;1.83;;;;;;;;;;10288193;28;20050;-82
2023/07/24 06:39:24;;;;;;;2.08;1.50;;;;;;;;;;10301208;28;20553;-83
2023/07/24 06:44:28;;;;;;;2.97;1.80;;;;;;;;;;10304389;28;20664;-82
2023/07/24 06:49:32;;;;;;;1.80;1.48;;;;;;;;;;10291452;28;20070;-83
2023/07/24 06:54:37;;;;;;;;;;;;;;;;;;10317332;28;20126;-82
2023/07/24 06:59:40;;;;;;;2.63;1.73;;;;;;;;;;10302857;28;19957;-83
2023/07/24 07:04:45;;;;;;;3.50;2.05;;;;;;;;;;10302696;28;20049;-82
2023/07/24 07:09:48;;;;;;;4.80;2.50;;;;;;;;;;10317973;28;20488;-81
2023/07/24 07:14:51;;;;;;;4.28;2.42;;;;;;;;;;10306549;28;20379;-82
2023/07/24 07:19:57;;;;;;;2.45;1.80;;;;;;;;;;10300563;28;20077;-82
2023/07/24 07:25:00;;;;;;;2.47;1.60;;;;;;;;;;10300091;28;20043;-81
2023/07/24 07:30:07;;;;;;;3.03;1.92;;;;;;;;;;10314585;28;20077;-82
2023/07/24 07:35:12;;;;;;;3.67;2.25;;;;;;;;;;10312543;28;20069;-83
2023/07/24 07:40:15;;;;;;;3.20;2.33;;;;;;;;;;10301984;28;20039;-81
2023/07/24 07:45:19;;;;;;;4.50;2.67;;;;;;;;;;10306838;28;20043;-83
2023/07/24 07:50:24;;;;;;;4.00;2.53;;;;;;;;;;10301074;28;20130;-82
2023/07/24 07:55:27;;;;;;;3.47;2.67;;;;;;;;;;10286712;28;20078;-82
2023/07/24 08:00:32;;;;;;;3.65;2.60;;;;;;;;;;10277365;28;20054;-82
2023/07/24 08:05:37;;;;;;;3.13;2.57;;;;;;;;;;10309935;28;20043;-82
2023/07/24 08:10:40;;;;;;;3.53;2.20;;;;;;;;;;10308523;28;20073;-82
2023/07/24 08:15:44;;;;;;;4.80;3.00;;;;;;;;;;10305252;28;20175;-82
2023/07/24 08:20:48;;;;;;;3.45;2.70;;;;;;;;;;10314292;28;20541;-82
2023/07/24 08:25:55;;;;;;;2.90;2.25;;;;;;;;;;10287019;28;20047;-82
2023/07/24 08:30:58;;;;;;;3.33;2.20;;;;;;;;;;10291899;28;20043;-82
2023/07/24 08:36:05;;;;;;;3.72;3.03;;;;;;;;;;10295997;28;20042;-82
2023/07/24 08:41:10;;;;;;;3.95;3.05;;;;;;;;;;10291701;28;20070;-83
2023/07/24 08:46:14;;;;;;;4.20;2.97;;;;;;;;;;10264815;28;20047;-83
2023/07/24 08:51:25;;;;;;;3.40;2.47;;;;;;;;;;10284729;28;20047;-83
2023/07/24 08:56:31;;;;;;;3.85;3.00;;;;;;;;;;10295007;28;20177;-83
2023/07/24 09:01:52;;;;;;;4.70;3.10;;;;;;;;;;10287991;28;20692;-83
2023/07/24 09:06:59;;;;;;;5.32;3.60;;;;;;;;;;10266156;28;20121;-83
2023/07/24 09:12:02;;;;;;;4.03;3.15;;;;;;;;;;10307470;28;20042;-83
2023/07/24 09:17:07;;;;;;;3.45;2.78;;;;;;;;;;10277388;28;20129;-83
2023/07/24 09:22:13;;;;;;;3.30;2.47;;;;;;;;;;10294191;28;20062;-82
2023/07/24 09:27:17;;;;;;;4.70;3.58;;;;;;;;;;10291173;28;20058;-82
2023/07/24 09:32:21;;;;;;;4.78;3.53;;;;;;;;;;10295650;28;20479;-83
2023/07/24 09:37:27;;;;;;;5.10;3.30;;;;;;;;;;10276589;28;20046;-82
2023/07/24 09:42:36;;;;;;;4.88;3.20;;;;;;;;;;10277137;28;20066;-83
2023/07/24 09:47:48;;;;;;;4.30;2.60;;;;;;;;;;10294402;28;20050;-82
2023/07/24 09:52:57;;;;;;;2.92;2.28;;;;;;;;;;10294103;28;20046;-83
2023/07/24 09:58:02;;;;;;;5.78;3.15;;;;;;;;;;10303157;28;20073;-83
2023/07/24 10:03:06;;;;;;;4.65;3.13;;;;;;;;;;10283632;28;20074;-83
2023/07/24 10:08:12;;;;;;;4.63;2.70;;;;;;;;;;10266707;28;20409;-83
2023/07/24 10:20:11;;;;;;;4.28;3.10;;;;;;;;;;10331355;28;20052;-88
2023/07/24 10:25:43;;;;;;;4.93;3.10;;;;;;;;;;10294258;28;20410;-90
2023/07/24 10:30:57;;;;;;;4.57;3.22;;;;;;;;;;10355525;28;20073;-90
2023/07/24 10:36:14;;;;;;;4.75;3.03;;;;;;;;;;10414157;28;20042;-91
2023/07/24 10:42:05;;;;;;;3.85;3.30;;;;;;;;;;10420665;28;20049;-90
2023/07/24 10:52:39;;;;;;;3.88;2.80;;;;;;;;;;10387008;28;20633;-89
2023/07/24 10:58:00;;;;;;;4.53;3.40;;;;;;;;;;10381273;28;20129;-89
2023/07/24 11:03:08;;;;;;;3.67;2.97;;;;;;;;;;10388597;28;20476;-89
2023/07/24 11:08:15;;;;;;;4.40;3.15;;;;;;;;;;10413468;28;20069;-88
2023/07/24 11:13:54;;;;;;;4.97;3.25;;;;;;;;;;10414010;28;20111;-88
2023/07/24 11:19:10;;;;;;;3.70;2.78;;;;;;;;;;10395748;28;20045;-89
2023/07/24 11:24:14;;;;;;;2.95;2.42;;;;;;;;;;10399995;28;20095;-88
2023/07/24 11:29:32;;;;;;;3.13;2.42;;;;;;;;;;10396113;28;20088;-88
2023/07/24 11:34:38;;;;;;;3.47;2.30;;;;;;;;;;10423642;28;20057;-88
2023/07/24 11:39:41;;;;;;;2.45;2.00;;;;;;;;;;10414662;28;20415;-88
2023/07/24 11:45:01;;;;;;;3.60;2.05;;;;;;;;;;10407336;28;20540;-88
2023/07/24 11:50:17;;;;;;;2.53;1.90;;;;;;;;;;10417105;28;20045;-89
2023/07/24 11:55:35;;;;;;;3.15;2.30;;;;;;;;;;10407930;28;20049;-88
2023/07/24 12:00:48;;;;;;;3.25;2.13;;;;;;;;;;10426515;28;20061;-89
2023/07/24 12:05:54;;;;;;;3.22;2.00;;;;;;;;;;10417508;28;20045;-92
2023/07/24 12:11:04;;;;;;;2.58;2.00;;;;;;;;;;10433367;28;20130;-92
2023/07/24 12:16:12;;;;;;;3.75;2.65;;;;;;;;;;10432770;28;20509;-94
2023/07/24 12:26:57;;;;;;;2.78;2.20;;;;;;;;;;10425703;28;20049;-93
2023/07/24 12:32:13;;;;;;;2.88;2.00;;;;;;;;;;10432485;28;20076;-93
2023/07/24 12:37:42;;;;;;;2.70;2.10;;;;;;;;;;10431514;28;20107;-92
2023/07/24 12:43:08;;;;;;;3.40;2.15;;;;;;;;;;10374468;28;20058;-92
2023/07/24 12:48:55;;;;;;;2.97;2.30;;;;;;;;;;10338318;28;20054;-92
2023/07/24 12:54:08;;;;;;;2.97;2.40;;;;;;;;;;10367168;28;20061;-92
2023/07/24 12:59:17;;;;;;;3.22;2.03;;;;;;;;;;10353228;28;20057;-93
2023/07/24 13:04:36;;;;;;;3.63;2.15;;;;;;;;;;10388975;28;20407;-92
2023/07/24 13:09:44;;;;;;;5.43;2.20;;;;;;;;;;10361649;28;20050;-92
2023/07/24 13:15:04;;;;;;;4.05;1.83;;;;;;;;;;10361749;28;20053;-92
2023/07/24 13:20:27;;;;;;;4.63;2.13;;;;;;;;;;10390085;28;20045;-92
2023/07/24 13:25:30;;;;;;;2.53;1.80;;;;;;;;;;10407759;28;20049;-94
2023/07/24 13:30:43;;;;;;;3.20;2.50;;;;;;;;;;10388950;28;20506;-93
2023/07/24 13:35:56;;;;;;;3.65;2.65;;;;;;;;;;10390887;28;20068;-93
2023/07/24 13:41:10;;;;;;;4.68;2.70;;;;;;;;;;10389542;28;20435;-93
2023/07/24 13:46:47;;;;;;;2.75;2.20;;;;;;;;;;10388800;28;20573;-94
2023/07/24 13:51:55;;;;;;;4.03;2.20;;;;;;;;;;10406263;28;20049;-93
2023/07/24 14:02:42;;;;;;;2.53;1.60;;;;;;;;;;10373400;23;20059;-89
2023/07/24 14:07:51;;;;;;;1.77;1.27;;;;;;;;;;10281855;28;20062;-87
2023/07/24 14:12:55;;;;;;;1.95;1.20;;;;;;;;;;10274427;28;20074;-88
2023/07/24 14:17:59;;;;;;;1.98;1.27;;;;;;;;;;10257136;28;20133;-87
2023/07/24 14:23:04;;;;;;;1.23;0.85;;;;;;;;;;10274187;28;20047;-88
2023/07/24 14:28:09;;;;;;;2.07;0.90;;;;;;;;;;10264942;28;20066;-88
2023/07/24 14:33:13;;;;;;;0.93;0.50;;;;;;;;;;10259650;28;20055;-89
2023/07/24 14:38:22;;;;;;;0.80;0.70;;;;;;;;;;10280962;28;20065;-89
2023/07/24 14:43:26;;;;;;;0.52;0.50;;;;;;;;;;10269077;28;20466;-89
2023/07/24 14:48:30;;;;;;;1.02;0.60;;;;;;;;;;10269450;28;20679;-88
2023/07/24 14:53:38;;;;;;;0.40;0.40;;;;;;;;;;10249224;28;20054;-88
2023/07/24 14:58:45;;;;;;;0.70;0.60;;;;;;;;;;10275167;28;20660;-88
2023/07/24 15:03:50;;;;;;;0.93;0.70;;;;;;;;;;10268279;28;20101;-89
2023/07/24 15:09:03;;;;;;;0.50;0.50;;;;;;;;;;10246430;28;20047;-89
2023/07/24 15:14:07;;;;;;;0.98;0.82;;;;;;;;;;10260793;28;20047;-88
2023/07/24 15:19:16;;;;;;;0.47;0.45;;;;;;;;;;10281130;28;20474;-88
2023/07/24 15:24:24;;;;;;;2.08;0.85;;;;;;;;;;10276857;28;20047;-90
2023/07/24 15:29:28;;;;;;;0.93;0.77;;;;;;;;;;10260215;28;20138;-87
2023/07/24 15:34:34;;;;;;;1.75;0.80;;;;;;;;;;10260760;28;20049;-89
2023/07/24 15:39:41;;;;;;;1.17;1.02;;;;;;;;;;10258185;28;20047;-88
2023/07/24 15:44:44;;;;;;;1.93;1.03;;;;;;;;;;10245340;28;20039;-87
2023/07/24 15:49:50;;;;;;;2.67;0.80;;;;;;;;;;10252097;28;20053;-87
2023/07/24 15:54:55;;;;;;;1.10;0.70;;;;;;;;;;10250168;28;20084;-91
2023/07/24 15:59:59;;;;;;;1.38;1.10;;;;;;;;;;10254589;28;20046;-87
2023/07/24 16:05:15;;;;;;;1.67;1.00;;;;;;;;;;10274903;28;20051;-90
2023/07/24 16:10:23;;;;;;;1.75;1.10;;;;;;;;;;10266452;28;20047;-88
2023/07/24 16:15:27;;;;;;;2.38;1.20;;;;;;;;;;10253014;28;20109;-87
2023/07/24 16:20:37;;;;;;;1.25;1.15;;;;;;;;;;10255837;28;20785;-89
2023/07/24 16:25:47;;;;;;;2.22;1.02;;;;;;;;;;10251489;28;20055;-88
2023/07/24 16:30:56;;;;;;;2.17;1.05;;;;;;;;;;10262542;28;20058;-90
2023/07/24 16:36:00;;;;;;;1.15;0.88;;;;;;;;;;10261880;28;20047;-89
2023/07/24 16:41:06;;;;;;;1.20;0.95;;;;;;;;;;10256958;28;20047;-89
2023/07/24 16:46:09;;;;;;;2.22;1.15;;;;;;;;;;10266083;28;20055;-89
2023/07/24 16:51:24;;;;;;;1.30;0.98;;;;;;;;;;10250931;28;20133;-88
2023/07/24 16:56:29;;;;;;;1.30;1.02;;;;;;;;;;10245975;28;20466;-91
2023/07/24 17:01:36;;;;;;;1.20;0.80;;;;;;;;;;10261130;28;20086;-91
2023/07/24 17:06:42;;;;;;;1.45;0.85;;;;;;;;;;10239903;28;20047;-89
2023/07/24 17:11:48;;;;;;;1.30;0.73;;;;;;;;;;10257935;28;20138;-89
2023/07/24 17:16:52;;;;;;;1.00;0.70;;;;;;;;;;10268297;28;20076;-88
2023/07/24 17:21:56;;;;;;;1.52;1.20;;;;;;;;;;10271764;28;20047;-88
2023/07/24 17:27:01;;;;;;;0.68;0.50;;;;;;;;;;10280510;28;20054;-89
2023/07/24 17:32:07;;;;;;;0.93;0.70;;;;;;;;;;10266344;28;20507;-88
2023/07/24 17:37:12;;;;;;;0.95;0.73;;;;;;;;;;10281097;28;20050;-88
2023/07/24 17:42:20;;;;;;;1.77;0.60;;;;;;;;;;10252096;28;20327;-87
2023/07/24 17:47:27;;;;;;;1.60;0.70;;;;;;;;;;10252238;28;20055;-89
2023/07/24 17:52:31;;;;;;;0.40;0.40;;;;;;;;;;10278323;28;20054;-88
2023/07/24 17:57:37;;;;;;;2.33;0.60;;;;;;;;;;10267414;28;20047;-89
2023/07/24 18:02:44;;;;;;;0.88;0.40;;;;;;;;;;10273660;28;20129;-88
2023/07/24 18:07:58;;;;;;;1.10;0.60;;;;;;;;;;10237896;28;20527;-87
2023/07/24 18:13:03;;;;;;;0.68;0.40;;;;;;;;;;10249011;28;20536;-87
2023/07/24 18:18:09;;;;;;;0.28;0.22;;;;;;;;;;10263048;28;20138;-88
2023/07/24 18:23:13;;;;;;;1.42;0.40;;;;;;;;;;10248592;28;20055;-89
2023/07/24 18:28:18;;;;;;;0.43;0.30;;;;;;;;;;10252273;28;20047;-88
2023/07/24 18:33:26;;;;;;;1.05;0.50;;;;;;;;;;10242113;28;20043;-89
2023/07/24 18:38:30;;;;;;;0.65;0.50;;;;;;;;;;10250981;28;20043;-88
2023/07/24 18:43:35;;;;;;;2.25;0.47;;;;;;;;;;10258194;28;20059;-90
2023/07/24 18:48:38;;;;;;;0.60;0.60;;;;;;;;;;10279410;28;20059;-88
2023/07/24 18:53:42;;;;;;;0.60;0.40;;;;;;;;;;10279142;28;20081;-88
2023/07/24 18:58:49;;;;;;;0.32;0.32;;;;;;;;;;10245224;28;20047;-90
2023/07/24 19:03:52;;;;;;;0.50;0.50;;;;;;;;;;10262083;28;20047;-88
2023/07/24 19:08:56;;;;;;;0.80;0.28;;;;;;;;;;10303137;28;20746;-88
2023/07/24 19:14:01;;;;;;;0.40;0.30;;;;;;;;;;10268401;28;20054;-88
2023/07/24 19:19:07;;;;;;;0.53;0.50;;;;;;;;;;10262691;28;20055;-92
2023/07/24 19:24:12;;;;;;;0.47;0.38;;;;;;;;;;10273531;28;20640;-88
2023/07/24 19:29:17;;;;;;;0.57;0.40;;;;;;;;;;10276651;28;20043;-90
2023/07/24 19:34:22;;;;;;;0.40;0.40;;;;;;;;;;10271237;28;20057;-89
2023/07/24 19:39:25;;;;;;;0.50;0.40;;;;;;;;;;10248802;28;20495;-88
2023/07/24 19:44:34;;;;;;;0.60;0.40;;;;;;;;;;10265293;28;20047;-88
2023/07/24 19:49:40;;;;;;;0.50;0.43;;;;;;;;;;10279410;28;20091;-89
2023/07/24 19:54:46;;;;;;;0.30;0.30;;;;;;;;;;10314621;28;20056;-88
2023/07/24 19:59:51;;;;;;;0.45;0.35;;;;;;;;;;10278700;28;20465;-87
2023/07/24 20:04:54;;;;;;;0.63;0.45;;;;;;;;;;10261540;28;20057;-87
2023/07/24 20:10:00;;;;;;;0.20;0.20;;;;;;;;;;10278769;28;20122;-86
2023/07/24 20:15:07;;;;;;;0.40;0.40;;;;;;;;;;10239673;28;20043;-86
2023/07/24 20:20:11;;;;;;;0.52;0.43;;;;;;;;;;10251349;28;20039;-87
2023/07/24 20:25:16;;;;;;;1.87;0.30;;;;;;;;;;10274291;28;20052;-89
2023/07/24 20:30:21;;;;;;;0.35;0.35;;;;;;;;;;10309468;28;20056;-88
2023/07/24 20:35:25;;;;;;;0.60;0.50;;;;;;;;;;10274577;28;20057;-90
2023/07/24 20:40:28;;;;;;;0.50;0.32;;;;;;;;;;10295613;28;20050;-91
2023/07/24 20:45:33;;;;;;;1.10;0.40;;;;;;;;;;10260995;28;20057;-88
2023/07/24 20:50:39;;;;;;;1.58;0.30;;;;;;;;;;10231979;28;20058;-91
2023/07/24 20:55:42;;;;;;;0.87;0.20;;;;;;;;;;10268506;28;20753;-89
2023/07/24 21:00:47;;;;;;;0.73;0.50;;;;;;;;;;10266024;28;20506;-90
2023/07/24 21:05:52;;;;;;;0.77;0.40;;;;;;;;;;10282375;28;20082;-90
2023/07/24 21:10:58;;;;;;;0.50;0.40;;;;;;;;;;10281366;28;20046;-89
2023/07/24 21:16:03;;;;;;;0.28;0.28;;;;;;;;;;10293992;28;20121;-89
2023/07/24 21:21:07;;;;;;;0.37;0.30;;;;;;;;;;10284150;28;20054;-89
2023/07/24 21:26:11;;;;;;;1.80;0.70;;;;;;;;;;10273698;28;20054;-89
2023/07/24 21:31:16;;;;;;;2.05;0.50;;;;;;;;;;10295239;28;20391;-90
2023/07/24 21:36:20;;;;;;;1.73;0.50;;;;;;;;;;10289822;28;20070;-93
2023/07/24 21:41:23;;;;;;;0.43;0.40;;;;;;;;;;10284535;28;20314;-89
2023/07/24 21:46:28;;;;;;;0.50;0.50;;;;;;;;;;10248732;28;20069;-88
2023/07/24 21:51:32;;;;;;;0.55;0.30;;;;;;;;;;10250854;28;20038;-87
2023/07/24 21:56:36;;;;;;;0.38;0.38;;;;;;;;;;10243086;28;20680;-87
2023/07/24 22:01:44;;;;;;;0.63;0.32;;;;;;;;;;10251934;28;20051;-88
2023/07/24 22:06:50;;;;;;;0.30;0.30;;;;;;;;;;10269853;28;20566;-89
2023/07/24 22:11:54;;;;;;;0.47;0.47;;;;;;;;;;10263452;28;20055;-87
2023/07/24 22:17:01;;;;;;;0.40;0.40;;;;;;;;;;10260453;28;20122;-87
2023/07/24 22:22:06;;;;;;;1.10;0.50;;;;;;;;;;10255020;28;20462;-87
2023/07/24 22:27:09;;;;;;;1.10;0.50;;;;;;;;;;10249725;28;20477;-87
2023/07/24 22:32:14;;;;;;;4.43;0.90;;;;;;;;;;10261170;28;20039;-87
2023/07/24 22:37:23;;;;;;;0.70;0.70;;;;;;;;;;10268969;28;20514;-86
2023/07/24 22:42:26;;;;;;;7.25;0.75;;;;;;;;;;10280823;28;20051;-87
2023/07/24 22:47:32;;;;;;;0.65;0.40;;;;;;;;;;10256418;28;20082;-87
2023/07/24 22:52:38;;;;;;;0.77;0.50;;;;;;;;;;10252521;28;20053;-87
2023/07/24 22:57:41;;;;;;;0.57;0.50;;;;;;;;;;10267297;28;20057;-88
2023/07/24 23:02:47;;;;;;;3.42;0.50;;;;;;;;;;10282137;28;20081;-88
2023/07/24 23:07:54;;;;;;;0.50;0.50;;;;;;;;;;10259536;28;20050;-89
2023/07/24 23:12:58;;;;;;;0.40;0.40;;;;;;;;;;10259322;28;20150;-88
2023/07/24 23:18:06;;;;;;;0.50;0.50;;;;;;;;;;10276429;28;20043;-88
2023/07/24 23:23:10;;;;;;;0.60;0.50;;;;;;;;;;10254445;28;20086;-88
2023/07/24 23:28:15;;;;;;;0.47;0.45;;;;;;;;;;10255750;28;20060;-86
2023/07/24 23:33:20;;;;;;;0.38;0.32;;;;;;;;;;10262841;28;20069;-88
2023/07/24 23:38:29;;;;;;;0.52;0.50;;;;;;;;;;10254191;28;20130;-90
2023/07/24 23:43:34;;;;;;;0.90;0.50;;;;;;;;;;10277828;28;20474;-91
2023/07/24 23:48:40;;;;;;;0.50;0.50;;;;;;;;;;10281378;28;20054;-89
2023/07/24 23:53:44;;;;;;;0.80;0.70;;;;;;;;;;10286320;28;20526;-89
2023/07/24 23:58:48;;;;;;;0.40;0.40;;;;;;;;;;10278360;28;20105;-90
